Cedar Springs

*Note: All times are displayed in the local standard time of the station location.
**Rain - Equipment is designed to accurately record liquid precipitation; under conditions when precipitation is not in liquid form, the data displayed may not properly reflect rainfall values.

Date Max Temp
(°C)
Min Temp
(°C)
Avg Temp
(°C)
Rain (mm) Avg RH (%) Solar Rad (kJ/m2)
Tue, Jan 15, 2019 -2.1 -6.7 -3.1 0.0 98.5 652.2
Mon, Jan 14, 2019 -1.0 -6.6 -4.1 0.0 94.7 4540.6
Sun, Jan 13, 2019 -0.6 -6.1 -3.7 0.0 87.2 3329.1
Sat, Jan 12, 2019 -0.8 -3.2 -2.0 0.0 87.3 1518.3
Fri, Jan 11, 2019 -1.5 -9.2 -4.9 0.0 88.3 4480.7
Thu, Jan 10, 2019 -4.0 -8.7 -5.7 0.0 84.0 3184.0
Wed, Jan 09, 2019 2.3 -3.9 -2.0 0.0 88.1 1530.4
DateTime Avg Temp (°C) Rain (mm) RH (%) Solar Rad (kJ/m2)
Wed, Jan 16, 2019 06:00 -1.4 0.0 99.9 0.0
Wed, Jan 16, 2019 05:00 -1.9 0.0 99.9 0.0
Wed, Jan 16, 2019 04:00 -2.2 0.0 99.9 0.0
Wed, Jan 16, 2019 03:00 -2.3 0.0 99.9 0.0
Wed, Jan 16, 2019 02:00 -2.3 0.0 99.8 0.0
Wed, Jan 16, 2019 01:00 -2.3 0.0 99.5 0.0
Wed, Jan 16, 2019 00:00 -2.3 0.0 99.5 0.0
Tue, Jan 15, 2019 23:00 -2.3 0.0 99.4 0.0
Tue, Jan 15, 2019 22:00 -2.4 0.0 99.4 0.0
Tue, Jan 15, 2019 21:00 -2.2 0.0 99.1 0.0
Tue, Jan 15, 2019 20:00 -2.4 0.0 98.9 0.0
Tue, Jan 15, 2019 19:00 -2.2 0.0 99.1 0.0
Tue, Jan 15, 2019 18:00 -2.4 0.0 99.7 2.2
Tue, Jan 15, 2019 17:00 -2.8 0.0 99.9 31.7
Tue, Jan 15, 2019 16:00 -3.0 0.0 99.9 89.2
Tue, Jan 15, 2019 15:00 -3.3 0.0 99.7 93.1
Tue, Jan 15, 2019 14:00 -3.4 0.0 99.4 122.5
Tue, Jan 15, 2019 13:00 -3.2 0.0 98.9 84.3
Tue, Jan 15, 2019 12:00 -2.8 0.0 98.3 79.7
Tue, Jan 15, 2019 11:00 -2.5 0.0 97.7 85.6
Tue, Jan 15, 2019 10:00 -2.6 0.0 97.4 47.0
Tue, Jan 15, 2019 09:00 -2.5 0.0 96.8 16.3
Tue, Jan 15, 2019 08:00 -2.5 0.0 96.7 0.6
Tue, Jan 15, 2019 07:00 -2.5 0.0 97.5 0.0
Tue, Jan 15, 2019 06:00 -3.2 0.0 98.2 0.0
Tue, Jan 15, 2019 05:00 -3.8 0.0 98.3 0.0
Tue, Jan 15, 2019 04:00 -4.3 0.0 98.2 0.0
Tue, Jan 15, 2019 03:00 -5.7 0.0 98.1 0.0
Tue, Jan 15, 2019 02:00 -6.2 0.0 97.5 0.0
Tue, Jan 15, 2019 01:00 -5.2 0.0 96.9 0.0
Tue, Jan 15, 2019 00:00 -4.3 0.0 96.3 0.0
Mon, Jan 14, 2019 23:00 -3.6 0.0 95.7 0.0
Mon, Jan 14, 2019 22:00 -3.2 0.0 95.0 0.0
Mon, Jan 14, 2019 21:00 -3.4 0.0 94.4 0.0
Mon, Jan 14, 2019 20:00 -3.6 0.0 93.7 0.0
Mon, Jan 14, 2019 19:00 -3.5 0.0 92.9 0.0
Mon, Jan 14, 2019 18:00 -3.1 0.0 91.8 9.9
Mon, Jan 14, 2019 17:00 -1.9 0.0 90.6 178.8
Mon, Jan 14, 2019 16:00 -1.2 0.0 90.3 502.4
Mon, Jan 14, 2019 15:00 -1.5 0.0 91.3 764.6
Mon, Jan 14, 2019 14:00 -1.2 0.0 92.3 919.2
Mon, Jan 14, 2019 13:00 -2.2 0.0 94.3 886.5
Mon, Jan 14, 2019 12:00 -3.3 0.0 96.1 640.7
Mon, Jan 14, 2019 11:00 -4.1 0.0 97.2 406.1
Mon, Jan 14, 2019 10:00 -5.1 0.0 97.8 179.4
Mon, Jan 14, 2019 09:00 -5.8 0.0 98.0 51.7
Mon, Jan 14, 2019 08:00 -5.6 0.0 97.7 1.3
Mon, Jan 14, 2019 07:00 -5.4 0.0 97.4 0.0


asterix Register now to access more data! asterix